This is the latest recevied weather packets stored in our database for station/object K1RFS. If no packets are shown the sender has not sent any weather packets the latest 10 day(s).
| Time | Temp. | Humidity | Pressure | Rain* | Wind** | Luminosity | Snow |
|---|---|---|---|---|---|---|---|
| 1777423666 | 12.22° C | 39% | 1004.9 hPa | 0 mm | - | 145 W/m² | - |
| 1777423361 | 11.67° C | 40% | 1005 hPa | 0 mm | - | 126 W/m² | - |
| 1777423056 | 12.22° C | 40% | 1004.9 hPa | 0 mm | - | 59 W/m² | - |
| 1777422753 | 11.67° C | 42% | 1005 hPa | 0 mm | - | 64 W/m² | - |
| 1777422453 | 11.67° C | 42% | 1005.3 hPa | 0 mm | - | 61 W/m² | - |
| 1777422148 | 11.67° C | 41% | 1005 hPa | 0 mm | - | 66 W/m² | - |
| 1777421847 | 11.67° C | 42% | 1005 hPa | 0 mm | - | 80 W/m² | - |
| 1777421543 | 11.67° C | 42% | 1005.3 hPa | 0 mm | - | 73 W/m² | - |
| 1777421239 | 11.67° C | 41% | 1005 hPa | 0 mm | - | 64 W/m² | - |
| 1777420935 | 11.67° C | 41% | 1005 hPa | 0 mm | - | 106 W/m² | - |
| 1777420632 | 11.67° C | 41% | 1005.3 hPa | 0 mm | - | 102 W/m² | - |
| 1777420329 | 12.22° C | 42% | 1005.3 hPa | 0 mm | - | 107 W/m² | - |
| 1777420024 | 12.78° C | 39% | 1005.2 hPa | 0 mm | - | 112 W/m² | - |
| 1777419721 | 13.89° C | 38% | 1005.4 hPa | 0 mm | - | 297 W/m² | - |
| 1777419418 | 15° C | 37% | 1005.3 hPa | 0 mm | - | 376 W/m² | - |
| 1777419118 | 13.33° C | 39% | 1005.4 hPa | 0 mm | - | 407 W/m² | - |
| 1777418817 | 12.22° C | 41% | 1005.4 hPa | 0 mm | - | 398 W/m² | - |
| 1777418514 | 11.11° C | 44% | 1005.3 hPa | 0 mm | - | 231 W/m² | - |
| 1777418210 | 11.11° C | 43% | 1005.3 hPa | 0 mm | - | 104 W/m² | - |
| 1777417906 | 11.11° C | 45% | 1005.2 hPa | 0 mm | - | 86 W/m² | - |
| 1777417603 | 11.11° C | 44% | 1005 hPa | 0 mm | - | 120 W/m² | - |
| 1777417298 | 11.11° C | 44% | 1005.3 hPa | 0 mm | - | 164 W/m² | - |
| 1777416995 | 11.67° C | 43% | 1005.3 hPa | 0 mm | - | 98 W/m² | - |
| 1777416690 | 11.67° C | 45% | 1005.5 hPa | 0 mm | - | 96 W/m² | - |
| 1777416386 | 11.67° C | 44% | 1005.4 hPa | 0 mm | - | 115 W/m² | - |
* Rain latest hour (hover to see other rain measurements)
** Current wind speed in m/s (hover to see current wind gust speed)